createdAt,value
2023-09-06T00:00:26.950Z,95898.91
2023-09-06T00:02:53.549Z,95902.44
2023-09-06T00:05:20.051Z,95901.63
2023-09-06T00:07:46.459Z,95907.06
2023-09-06T00:10:16.423Z,95892.41
2023-09-06T00:12:43.011Z,95892.63
2023-09-06T00:15:10.325Z,95891.53
2023-09-06T00:17:38.186Z,95896.19
2023-09-06T00:20:10.351Z,95893.75
2023-09-06T00:22:37.474Z,95891.03
2023-09-06T00:25:04.606Z,95890.72
2023-09-06T00:27:31.648Z,95891.03
2023-09-06T00:29:58.064Z,95886.72
2023-09-06T00:32:24.408Z,95890.50
2023-09-06T00:34:50.825Z,95885.09
2023-09-06T00:37:17.205Z,95881.00
2023-09-06T00:39:43.309Z,95876.69
2023-09-06T00:42:10.415Z,95886.47
2023-09-06T00:44:37.466Z,95885.63
2023-09-06T00:47:04.078Z,95891.13
2023-09-06T00:49:32.349Z,95885.47
2023-09-06T00:51:58.892Z,95885.47
2023-09-06T00:54:25.431Z,95887.63
2023-09-06T00:56:52.910Z,95881.94
2023-09-06T00:59:22.924Z,95886.53
2023-09-06T01:01:50.053Z,95875.47
2023-09-06T01:04:16.563Z,95891.47
2023-09-06T01:06:44.258Z,95885.22
2023-09-06T01:09:11.339Z,95893.38
2023-09-06T01:11:39.300Z,95895.81
2023-09-06T01:14:05.739Z,95893.34
2023-09-06T01:16:37.496Z,95891.19
2023-09-06T01:19:06.426Z,95893.91
2023-09-06T01:21:36.770Z,95889.56
2023-09-06T01:24:05.786Z,95895.56
2023-09-06T01:26:33.280Z,95889.84
2023-09-06T01:28:59.920Z,95889.84
2023-09-06T01:31:28.241Z,95889.84
2023-09-06T01:33:54.726Z,95878.19
2023-09-06T01:36:21.059Z,95883.09
2023-09-06T01:38:47.462Z,95880.63
2023-09-06T01:41:14.458Z,95886.06
2023-09-06T01:43:40.925Z,95881.72
2023-09-06T01:46:07.460Z,95883.91
2023-09-06T01:48:34.079Z,95872.78
2023-09-06T01:51:00.802Z,95884.72
2023-09-06T01:53:27.185Z,95879.28
2023-09-06T01:55:53.578Z,95877.13
2023-09-06T01:58:20.605Z,95875.22
2023-09-06T02:00:47.417Z,95869.81
2023-09-06T02:03:16.534Z,95872.25
2023-09-06T02:05:44.351Z,95865.47
2023-09-06T02:08:11.508Z,95866.84
2023-09-06T02:10:38.215Z,95868.19
2023-09-06T02:13:04.897Z,95866.28
2023-09-06T02:15:31.925Z,95871.16
2023-09-06T02:17:58.421Z,95857.06
2023-09-06T02:20:26.284Z,95860.03
2023-09-06T02:22:56.320Z,95861.91
2023-09-06T02:25:25.332Z,95860.88
2023-09-06T02:27:53.218Z,95868.19
2023-09-06T02:30:20.844Z,95867.91
2023-09-06T02:32:48.447Z,95870.88
2023-09-06T02:35:15.008Z,95864.91
2023-09-06T02:37:41.437Z,95863.56
2023-09-06T02:40:12.330Z,95868.44
2023-09-06T02:42:38.869Z,95864.63
2023-09-06T02:45:06.962Z,95865.16
2023-09-06T02:47:34.916Z,95864.34
2023-09-06T02:50:06.086Z,95864.34
2023-09-06T02:52:36.314Z,95859.47
2023-09-06T02:55:05.499Z,95864.34
2023-09-06T02:57:32.582Z,95866.50
2023-09-06T02:59:58.930Z,95869.50
2023-09-06T03:02:25.411Z,95863.81
2023-09-06T03:04:55.619Z,95873.56
2023-09-06T03:07:22.833Z,95870.28
2023-09-06T03:09:50.328Z,95875.16
2023-09-06T03:12:17.204Z,95873.28
2023-09-06T03:14:44.980Z,95876.25
2023-09-06T03:17:11.569Z,95876.78
2023-09-06T03:19:41.721Z,95885.75
2023-09-06T03:22:09.975Z,95883.25
2023-09-06T03:24:40.833Z,95890.31
2023-09-06T03:27:08.095Z,95893.03
2023-09-06T03:29:37.025Z,95887.28
2023-09-06T03:32:05.446Z,95887.00
2023-09-06T03:34:31.908Z,95888.34
2023-09-06T03:36:58.295Z,95883.75
2023-09-06T03:39:29.363Z,95892.94
2023-09-06T03:41:57.947Z,95894.56
2023-09-06T03:44:25.340Z,95896.44
2023-09-06T03:46:52.538Z,95899.22
2023-09-06T03:49:19.121Z,95894.63
2023-09-06T03:51:45.667Z,95894.91
2023-09-06T03:54:12.786Z,95895.44
2023-09-06T03:56:39.965Z,95891.91
2023-09-06T03:59:08.765Z,95894.84
2023-09-06T04:01:35.272Z,95888.31
2023-09-06T04:04:01.978Z,95889.94
2023-09-06T04:06:29.495Z,95894.50
2023-09-06T04:08:56.082Z,95895.56
2023-09-06T04:11:23.400Z,95893.91
2023-09-06T04:13:51.516Z,95899.88
2023-09-06T04:16:18.600Z,95910.16
2023-09-06T04:18:45.016Z,95909.91
2023-09-06T04:21:11.424Z,95901.50
2023-09-06T04:23:39.509Z,95904.22
2023-09-06T04:26:06.026Z,95903.63
2023-09-06T04:28:32.909Z,95907.94
2023-09-06T04:31:00.637Z,95899.28
2023-09-06T04:33:27.681Z,95903.88
2023-09-06T04:35:54.029Z,95901.16
2023-09-06T04:38:23.959Z,95909.56
2023-09-06T04:40:52.314Z,95914.41
2023-09-06T04:43:19.342Z,95910.34
2023-09-06T04:45:46.912Z,95914.59
2023-09-06T04:48:17.083Z,95910.28
2023-09-06T04:50:45.302Z,95907.03
2023-09-06T04:53:12.825Z,95908.09
2023-09-06T04:55:40.401Z,95909.19
2023-09-06T04:58:07.924Z,95915.16
2023-09-06T05:00:37.700Z,95917.03
2023-09-06T05:03:08.834Z,95924.59
2023-09-06T05:05:36.053Z,95926.75
2023-09-06T05:08:03.758Z,95931.06
2023-09-06T05:10:30.654Z,95929.75
2023-09-06T05:12:57.053Z,95934.09
2023-09-06T05:15:23.528Z,95937.66
2023-09-06T05:17:50.008Z,95940.13
2023-09-06T05:20:28.238Z,95939.84
2023-09-06T05:22:56.119Z,95941.19
2023-09-06T05:25:23.359Z,95950.16
2023-09-06T05:27:50.165Z,95952.91
2023-09-06T05:30:16.944Z,95941.84
2023-09-06T05:32:43.678Z,95942.44
2023-09-06T05:35:10.948Z,95946.00
2023-09-06T05:37:38.324Z,95939.56
2023-09-06T05:40:06.006Z,95942.03
2023-09-06T05:42:33.070Z,95937.41
2023-09-06T05:44:59.542Z,95946.13
2023-09-06T05:47:26.171Z,95946.41
2023-09-06T05:49:56.194Z,95950.50
2023-09-06T05:52:23.075Z,95945.06
2023-09-06T05:54:50.747Z,95944.28
2023-09-06T05:57:18.874Z,95948.88
2023-09-06T05:59:46.015Z,95955.16
2023-09-06T06:02:12.948Z,95953.00
2023-09-06T06:04:40.327Z,95958.19
2023-09-06T06:07:07.385Z,95954.41
2023-09-06T06:09:34.266Z,95944.91
2023-09-06T06:12:04.096Z,95958.19
2023-09-06T06:14:30.639Z,95951.13
2023-09-06T06:16:58.022Z,95964.16
2023-09-06T06:19:24.470Z,95961.69
2023-09-06T06:21:51.136Z,95966.81
2023-09-06T06:24:17.954Z,95969.72
2023-09-06T06:26:44.389Z,95959.06
2023-09-06T06:29:10.908Z,95964.41
2023-09-06T06:31:37.622Z,95965.38
2023-09-06T06:34:05.093Z,95966.56
2023-09-06T06:36:32.279Z,95976.47
2023-09-06T06:38:58.894Z,95969.25
2023-09-06T06:41:26.377Z,95971.16
2023-09-06T06:43:53.120Z,95960.50
2023-09-06T06:46:27.213Z,95964.06
2023-09-06T06:48:53.697Z,95961.78
2023-09-06T06:51:22.695Z,95958.47
2023-09-06T06:53:49.070Z,95947.53
2023-09-06T06:56:17.674Z,95941.53
2023-09-06T06:58:44.236Z,95943.13
2023-09-06T07:01:10.782Z,95946.50
2023-09-06T07:03:37.258Z,95945.44
2023-09-06T07:06:03.689Z,95944.84
2023-09-06T07:08:30.915Z,95945.06
2023-09-06T07:10:59.063Z,95943.00
2023-09-06T07:13:25.488Z,95933.69
2023-09-06T07:15:52.044Z,95937.22
2023-09-06T07:18:19.001Z,95926.56
2023-09-06T07:20:45.420Z,95917.94
2023-09-06T07:23:11.825Z,95922.16
2023-09-06T07:25:38.994Z,95928.22
2023-09-06T07:28:05.649Z,95922.66
2023-09-06T07:30:32.755Z,95924.63
2023-09-06T07:32:59.212Z,95928.88
2023-09-06T07:35:25.710Z,95932.69
2023-09-06T07:37:52.069Z,95932.97
2023-09-06T07:40:18.633Z,95926.44
2023-09-06T07:42:45.640Z,95922.44
2023-09-06T07:45:12.568Z,95920.91
2023-09-06T07:47:39.191Z,95920.66
2023-09-06T07:50:09.470Z,95924.72
2023-09-06T07:52:37.397Z,95912.50
2023-09-06T07:55:04.849Z,95918.22
2023-09-06T07:57:31.430Z,95915.41
2023-09-06T07:59:58.415Z,95914.75
2023-09-06T08:02:24.822Z,95905.75
2023-09-06T08:04:51.598Z,95908.16
2023-09-06T08:07:18.096Z,95912.41
2023-09-06T08:09:44.479Z,95918.88
2023-09-06T08:12:10.941Z,95908.19
2023-09-06T08:14:39.446Z,95911.13
2023-09-06T08:17:06.545Z,95909.78
2023-09-06T08:19:33.511Z,95908.78
2023-09-06T08:21:59.867Z,95909.56
2023-09-06T08:24:26.303Z,95907.44
2023-09-06T08:26:52.690Z,95910.47
2023-09-06T08:29:19.319Z,95912.72
2023-09-06T08:31:45.881Z,95917.06
2023-09-06T08:34:13.299Z,95918.63
2023-09-06T08:36:39.730Z,95913.91
2023-09-06T08:39:07.158Z,95914.78
2023-09-06T08:41:34.199Z,95907.63
2023-09-06T08:44:04.043Z,95903.41
2023-09-06T08:46:33.780Z,95908.44
2023-09-06T08:49:03.438Z,95910.22
2023-09-06T08:51:32.559Z,95906.19
2023-09-06T08:54:00.531Z,95911.41
2023-09-06T08:56:27.759Z,95900.75
2023-09-06T08:58:54.134Z,95907.00
2023-09-06T09:01:22.328Z,95906.84
2023-09-06T09:03:48.882Z,95904.91
2023-09-06T09:06:15.375Z,95913.22
2023-09-06T09:08:42.385Z,95908.09
2023-09-06T09:11:12.623Z,95915.22
2023-09-06T09:13:39.405Z,95905.09
2023-09-06T09:16:09.531Z,95901.19
2023-09-06T09:18:37.329Z,95906.22
2023-09-06T09:21:04.089Z,95906.56
2023-09-06T09:23:31.044Z,95899.63
2023-09-06T09:25:58.290Z,95900.53
2023-09-06T09:28:25.198Z,95892.66
2023-09-06T09:30:52.346Z,95889.31
2023-09-06T09:33:19.574Z,95886.53
2023-09-06T09:35:48.553Z,95890.13
2023-09-06T09:38:15.010Z,95896.13
2023-09-06T09:40:52.868Z,95900.16
2023-09-06T09:43:30.425Z,95879.75
2023-09-06T09:45:57.721Z,95886.81
2023-09-06T09:48:29.943Z,95885.28
2023-09-06T09:50:57.048Z,95891.28
2023-09-06T09:53:24.563Z,95883.84
2023-09-06T09:55:53.861Z,95886.09
2023-09-06T09:58:24.429Z,95880.09
2023-09-06T10:00:50.888Z,95884.22
2023-09-06T10:03:18.397Z,95887.28
2023-09-06T10:05:47.567Z,95889.91
2023-09-06T10:08:15.963Z,95885.06
2023-09-06T10:10:42.416Z,95876.06
2023-09-06T10:13:09.061Z,95884.47
2023-09-06T10:15:37.058Z,95876.16
2023-09-06T10:18:05.568Z,95877.59
2023-09-06T10:20:35.197Z,95877.78
2023-09-06T10:23:01.803Z,95875.69
2023-09-06T10:25:28.771Z,95863.91
2023-09-06T10:27:56.464Z,95870.59
2023-09-06T10:30:29.379Z,95871.34
2023-09-06T10:32:56.473Z,95871.13
2023-09-06T10:35:26.229Z,95874.56
2023-09-06T10:38:01.740Z,95870.34
2023-09-06T10:41:11.240Z,95867.72
2023-09-06T10:43:55.024Z,95870.19
2023-09-06T10:46:27.440Z,95875.22
2023-09-06T10:49:19.935Z,95874.31
2023-09-06T10:51:59.847Z,95870.38
2023-09-06T10:54:34.637Z,95866.03
2023-09-06T10:57:06.392Z,95873.22
2023-09-06T10:59:37.322Z,95875.84
2023-09-06T11:02:27.328Z,95866.81
2023-09-06T11:05:09.691Z,95872.31
2023-09-06T11:07:49.157Z,95864.78
2023-09-06T11:10:23.087Z,95865.88
2023-09-06T11:12:49.761Z,95864.41
2023-09-06T11:15:16.318Z,95867.19
2023-09-06T11:17:44.616Z,95865.63
2023-09-06T11:20:16.809Z,95871.25
2023-09-06T11:22:48.811Z,95870.31
2023-09-06T11:25:17.207Z,95874.47
2023-09-06T11:27:45.776Z,95869.03
2023-09-06T11:30:16.508Z,95864.28
2023-09-06T11:32:45.945Z,95866.63
2023-09-06T11:35:15.188Z,95866.69
2023-09-06T11:37:47.299Z,95867.19
2023-09-06T11:40:15.897Z,95866.50
2023-09-06T11:42:43.864Z,95863.72
2023-09-06T11:45:15.035Z,95860.50
2023-09-06T11:47:43.514Z,95852.34
2023-09-06T11:50:13.177Z,95861.25
2023-09-06T11:52:55.473Z,95851.91
2023-09-06T11:55:24.000Z,95851.19
2023-09-06T11:57:52.628Z,95851.38
2023-09-06T12:00:28.106Z,95848.09
2023-09-06T12:02:56.104Z,95835.19
2023-09-06T12:05:34.936Z,95840.41
2023-09-06T12:08:11.573Z,95840.56
2023-09-06T12:10:39.339Z,95839.75
2023-09-06T12:13:06.530Z,95836.41
2023-09-06T12:15:33.672Z,95832.47
2023-09-06T12:18:00.230Z,95825.47
2023-09-06T12:20:28.200Z,95827.03
2023-09-06T12:22:56.142Z,95821.31
2023-09-06T12:25:23.995Z,95822.94
2023-09-06T12:27:50.479Z,95816.22
2023-09-06T12:30:19.116Z,95819.94
2023-09-06T12:32:46.219Z,95822.03
2023-09-06T12:35:15.323Z,95819.94
2023-09-06T12:37:42.984Z,95817.22
2023-09-06T12:40:11.318Z,95823.28
2023-09-06T12:42:40.922Z,95822.47
2023-09-06T12:45:08.578Z,95816.47
2023-09-06T12:47:35.499Z,95806.69
2023-09-06T12:50:04.430Z,95806.09
2023-09-06T12:52:30.989Z,95809.81
2023-09-06T12:54:57.353Z,95804.94
2023-09-06T12:57:23.758Z,95793.44
2023-09-06T12:59:50.834Z,95800.00
2023-09-06T13:02:18.007Z,95808.88
2023-09-06T13:04:44.552Z,95812.16
2023-09-06T13:07:11.003Z,95805.53
2023-09-06T13:09:37.425Z,95807.50
2023-09-06T13:12:04.254Z,95799.59
2023-09-06T13:14:30.627Z,95793.53
2023-09-06T13:16:57.658Z,95793.97
2023-09-06T13:19:25.085Z,95797.59
2023-09-06T13:21:51.657Z,95795.50
2023-09-06T13:24:18.152Z,95795.94
2023-09-06T13:26:45.051Z,95789.28
2023-09-06T13:29:11.538Z,95785.19
2023-09-06T13:31:38.234Z,95782.91
2023-09-06T13:34:05.447Z,95783.28
2023-09-06T13:36:36.327Z,95783.50
2023-09-06T13:39:04.320Z,95785.72
2023-09-06T13:41:31.023Z,95765.84
2023-09-06T13:43:57.480Z,95772.16
2023-09-06T13:46:23.937Z,95765.91
2023-09-06T13:48:50.391Z,95773.63
2023-09-06T13:51:18.229Z,95771.22
2023-09-06T13:53:46.742Z,95768.94
2023-09-06T13:56:13.521Z,95767.13
2023-09-06T13:58:39.864Z,95754.19
2023-09-06T14:01:06.338Z,95760.19
2023-09-06T14:03:32.836Z,95748.63
2023-09-06T14:05:59.271Z,95759.25
2023-09-06T14:08:26.284Z,95758.81
2023-09-06T14:10:53.414Z,95762.47
2023-09-06T14:13:21.044Z,95759.38
2023-09-06T14:15:47.453Z,95761.84
2023-09-06T14:18:15.312Z,95752.28
2023-09-06T14:20:41.835Z,95753.16
2023-09-06T14:23:09.994Z,95747.97
2023-09-06T14:25:39.338Z,95745.78
2023-09-06T14:28:05.926Z,95749.75
2023-09-06T14:30:32.296Z,95752.53
2023-09-06T14:33:00.604Z,95753.25
2023-09-06T14:35:27.045Z,95746.53
2023-09-06T14:37:53.503Z,95737.25
2023-09-06T14:40:20.268Z,95740.03
2023-09-06T14:42:47.302Z,95740.56
2023-09-06T14:45:13.691Z,95733.44
2023-09-06T14:47:40.569Z,95731.38
2023-09-06T14:50:07.403Z,95737.19
2023-09-06T14:52:33.818Z,95738.59
2023-09-06T14:55:00.239Z,95732.44
2023-09-06T14:57:27.209Z,95727.59
2023-09-06T14:59:54.260Z,95738.16
2023-09-06T15:02:21.268Z,95735.00
2023-09-06T15:04:47.689Z,95746.41
2023-09-06T15:07:14.434Z,95739.53
2023-09-06T15:09:41.488Z,95734.41
2023-09-06T15:12:07.966Z,95739.25
2023-09-06T15:14:34.382Z,95736.25
2023-09-06T15:17:01.495Z,95735.22
2023-09-06T15:19:30.057Z,95743.47
2023-09-06T15:21:56.757Z,95736.59
2023-09-06T15:24:24.355Z,95737.84
2023-09-06T15:26:50.832Z,95735.44
2023-09-06T15:29:17.503Z,95735.00
2023-09-06T15:31:44.542Z,95738.16
2023-09-06T15:34:11.598Z,95730.25
2023-09-06T15:36:38.082Z,95735.06
2023-09-06T15:39:06.093Z,95737.03
2023-09-06T15:41:32.659Z,95733.84
2023-09-06T15:43:59.447Z,95727.09
2023-09-06T15:46:26.285Z,95737.84
2023-09-06T15:48:52.823Z,95733.47
2023-09-06T15:51:19.980Z,95740.56
2023-09-06T15:53:46.617Z,95736.97
2023-09-06T15:56:13.142Z,95732.00
2023-09-06T15:58:39.514Z,95734.91
2023-09-06T16:01:06.361Z,95721.81
2023-09-06T16:03:33.366Z,95735.41
2023-09-06T16:06:00.076Z,95740.16
2023-09-06T16:08:27.256Z,95737.38
2023-09-06T16:10:53.727Z,95741.66
2023-09-06T16:13:20.128Z,95743.13
2023-09-06T16:15:47.240Z,95743.84
2023-09-06T16:18:13.927Z,95739.81
2023-09-06T16:20:42.671Z,95734.94
2023-09-06T16:23:09.128Z,95739.25
2023-09-06T16:25:36.525Z,95740.03
2023-09-06T16:28:05.317Z,95745.88
2023-09-06T16:30:36.695Z,95746.69
2023-09-06T16:33:03.779Z,95739.97
2023-09-06T16:35:36.593Z,95739.09
2023-09-06T16:38:06.923Z,95741.13
2023-09-06T16:40:35.141Z,95745.78
2023-09-06T16:43:02.272Z,95738.50
2023-09-06T16:45:28.674Z,95739.06
2023-09-06T16:47:55.077Z,95742.66
2023-09-06T16:50:21.543Z,95741.78
2023-09-06T16:52:48.155Z,95744.88
2023-09-06T16:55:14.601Z,95750.63
2023-09-06T16:57:40.915Z,95762.25
2023-09-06T17:00:09.352Z,95756.16
2023-09-06T17:02:35.806Z,95751.16
2023-09-06T17:05:04.931Z,95755.34
2023-09-06T17:07:31.421Z,95751.94
2023-09-06T17:09:57.777Z,95761.69
2023-09-06T17:12:25.494Z,95764.41
2023-09-06T17:14:51.915Z,95766.31
2023-09-06T17:17:19.357Z,95760.84
2023-09-06T17:19:46.908Z,95766.63
2023-09-06T17:22:13.318Z,95762.66
2023-09-06T17:24:39.672Z,95759.41
2023-09-06T17:27:08.780Z,95762.06
2023-09-06T17:29:37.608Z,95766.66
2023-09-06T17:32:05.117Z,95760.13
2023-09-06T17:34:33.198Z,95766.63
2023-09-06T17:37:00.110Z,95764.13
2023-09-06T17:39:26.688Z,95769.00
2023-09-06T17:41:53.380Z,95770.47
2023-09-06T17:44:20.687Z,95776.78
2023-09-06T17:46:48.150Z,95769.06
2023-09-06T17:49:14.570Z,95775.47
2023-09-06T17:51:45.049Z,95779.03
2023-09-06T17:54:13.389Z,95779.38
2023-09-06T17:56:41.258Z,95775.50
2023-09-06T17:59:07.988Z,95789.38
2023-09-06T18:01:36.147Z,95789.69
2023-09-06T18:04:04.472Z,95789.53
2023-09-06T18:06:31.304Z,95790.59
2023-09-06T18:08:59.072Z,95792.13
2023-09-06T18:11:26.238Z,95792.31
2023-09-06T18:13:52.896Z,95797.34
2023-09-06T18:16:19.871Z,95802.91
2023-09-06T18:18:48.178Z,95805.22
2023-09-06T18:21:14.856Z,95806.03
2023-09-06T18:23:43.328Z,95803.66
2023-09-06T18:26:10.941Z,95812.84
2023-09-06T18:28:37.607Z,95820.31
2023-09-06T18:31:04.300Z,95815.63
2023-09-06T18:33:30.708Z,95825.16
2023-09-06T18:35:57.248Z,95824.53
2023-09-06T18:38:24.384Z,95826.75
2023-09-06T18:40:53.634Z,95823.53
2023-09-06T18:43:23.536Z,95827.84
2023-09-06T18:45:51.110Z,95830.44
2023-09-06T18:48:20.196Z,95832.66
2023-09-06T18:50:47.163Z,95830.84
2023-09-06T18:53:13.936Z,95837.31
2023-09-06T18:55:43.392Z,95843.38
2023-09-06T18:58:10.698Z,95839.16
2023-09-06T19:00:38.786Z,95838.47
2023-09-06T19:03:07.474Z,95845.25
2023-09-06T19:05:35.074Z,95836.03
2023-09-06T19:08:02.097Z,95840.88
2023-09-06T19:10:28.583Z,95843.31
2023-09-06T19:12:55.279Z,95840.50
2023-09-06T19:15:22.649Z,95835.13
2023-09-06T19:17:50.912Z,95839.00
2023-09-06T19:20:19.240Z,95833.13
2023-09-06T19:22:45.861Z,95840.72
2023-09-06T19:25:12.266Z,95841.81
2023-09-06T19:27:39.931Z,95842.13
2023-09-06T19:30:09.034Z,95849.22
2023-09-06T19:32:36.559Z,95840.22
2023-09-06T19:35:03.912Z,95839.22
2023-09-06T19:37:30.338Z,95842.50
2023-09-06T19:39:56.932Z,95843.63
2023-09-06T19:42:25.989Z,95836.66
2023-09-06T19:44:52.738Z,95837.56
2023-09-06T19:47:19.922Z,95841.50
2023-09-06T19:49:46.368Z,95844.38
2023-09-06T19:52:13.502Z,95843.19
2023-09-06T19:54:39.910Z,95851.50
2023-09-06T19:57:06.392Z,95846.59
2023-09-06T19:59:32.939Z,95849.56
2023-09-06T20:02:00.204Z,95849.56
2023-09-06T20:04:26.978Z,95841.16
2023-09-06T20:06:53.473Z,95845.50
2023-09-06T20:09:20.542Z,95852.22
2023-09-06T20:11:47.768Z,95840.19
2023-09-06T20:14:14.856Z,95839.91
2023-09-06T20:16:41.719Z,95832.69
2023-09-06T20:19:08.123Z,95841.63
2023-09-06T20:21:35.095Z,95842.63
2023-09-06T20:24:01.429Z,95839.69
2023-09-06T20:26:29.030Z,95844.66
2023-09-06T20:28:58.228Z,95849.63
2023-09-06T20:31:24.811Z,95846.69
2023-09-06T20:33:51.247Z,95852.53
2023-09-06T20:36:17.666Z,95852.66
2023-09-06T20:38:44.066Z,95851.72
2023-09-06T20:41:10.504Z,95854.06
2023-09-06T20:43:38.386Z,95851.94
2023-09-06T20:46:05.347Z,95858.00
2023-09-06T20:48:32.553Z,95854.97
2023-09-06T20:51:02.279Z,95853.56
2023-09-06T20:53:30.680Z,95851.72
2023-09-06T20:55:57.353Z,95847.28
2023-09-06T20:58:24.032Z,95847.00
2023-09-06T21:00:54.776Z,95844.66
2023-09-06T21:03:22.478Z,95841.00
2023-09-06T21:05:57.625Z,95846.47
2023-09-06T21:08:24.242Z,95840.28
2023-09-06T21:10:50.969Z,95840.59
2023-09-06T21:13:17.407Z,95839.47
2023-09-06T21:15:45.229Z,95839.03
2023-09-06T21:18:12.458Z,95835.69
2023-09-06T21:20:40.526Z,95836.50
2023-09-06T21:23:07.087Z,95836.34
2023-09-06T21:25:33.466Z,95833.50
2023-09-06T21:27:59.927Z,95837.41
2023-09-06T21:30:26.457Z,95834.97
2023-09-06T21:32:53.251Z,95841.63
2023-09-06T21:35:20.375Z,95837.84
2023-09-06T21:37:46.741Z,95836.22
2023-09-06T21:40:13.138Z,95833.50
2023-09-06T21:42:39.586Z,95837.13
2023-09-06T21:45:07.560Z,95842.78
2023-09-06T21:47:34.015Z,95840.94
2023-09-06T21:50:00.506Z,95852.75
2023-09-06T21:52:27.597Z,95842.44
2023-09-06T21:54:54.055Z,95849.59
2023-09-06T21:57:20.439Z,95847.22
2023-09-06T21:59:47.191Z,95850.03
2023-09-06T22:02:13.673Z,95846.19
2023-09-06T22:04:40.091Z,95845.31
2023-09-06T22:07:06.531Z,95849.97
2023-09-06T22:09:33.620Z,95847.00
2023-09-06T22:12:00.022Z,95846.56
2023-09-06T22:14:26.437Z,95846.19
2023-09-06T22:16:52.854Z,95845.47
2023-09-06T22:19:19.322Z,95852.88
2023-09-06T22:21:45.861Z,95845.00
2023-09-06T22:24:12.805Z,95845.81
2023-09-06T22:26:39.890Z,95846.34
2023-09-06T22:29:06.234Z,95842.94
2023-09-06T22:31:33.934Z,95841.69
2023-09-06T22:34:00.717Z,95846.91
2023-09-06T22:36:27.060Z,95847.03
2023-09-06T22:38:53.473Z,95840.53
2023-09-06T22:41:20.924Z,95843.25
2023-09-06T22:43:47.976Z,95842.97
2023-09-06T22:46:14.410Z,95840.31
2023-09-06T22:48:53.932Z,95844.41
2023-09-06T22:51:21.561Z,95844.22
2023-09-06T22:53:47.896Z,95842.34
2023-09-06T22:56:14.713Z,95836.44
2023-09-06T22:58:41.236Z,95842.25
2023-09-06T23:01:08.566Z,95843.63
2023-09-06T23:03:35.346Z,95837.66
2023-09-06T23:06:06.847Z,95842.00
2023-09-06T23:08:33.619Z,95839.50
2023-09-06T23:11:00.165Z,95853.13
2023-09-06T23:13:26.930Z,95853.41
2023-09-06T23:15:53.612Z,95850.50
2023-09-06T23:18:22.438Z,95846.19
2023-09-06T23:20:48.921Z,95852.22
2023-09-06T23:23:17.326Z,95848.47
2023-09-06T23:25:46.660Z,95854.53
2023-09-06T23:28:15.741Z,95849.56
2023-09-06T23:30:48.945Z,95854.41
2023-09-06T23:33:23.374Z,95854.69
2023-09-06T23:35:50.363Z,95846.53
2023-09-06T23:38:17.393Z,95847.91
2023-09-06T23:40:44.079Z,95851.00
2023-09-06T23:43:11.209Z,95847.78
2023-09-06T23:45:45.478Z,95846.19
2023-09-06T23:48:12.074Z,95839.72
2023-09-06T23:50:38.433Z,95842.19
2023-09-06T23:53:05.456Z,95846.31
2023-09-06T23:55:32.254Z,95850.94
2023-09-06T23:57:58.727Z,95855.44
